Guthrie, OK (73044)

3:58 PM CDT on August 30, 2015 (GMT -0500)
89er | | Change Station
CLOSE
Current Station
Personal Weather Station
Location: Guthrie, OK
Elevation: 1066 ft
Nearby Weather Stations

Elev 1066 ft 35.81 °N, 97.45 °W | Updated 8 minutes ago

Clear
Clear
89.8 °F
Feels Like 95 °F
N
0.0
Wind Variable Wind from ENE

Today
High -- | Low -- °F
--% Chance of Precip.
Yesterday
High -- | Low -- °F
Precip. -- in
6:59 AM 8:00 PM
Full, 98% visible
Pressure 29.92 in
Visibility 10.0 miles
Clouds Clear
Heat Index 95 °F
Dew Point 70 °F
Humidity 52%
Rainfall 0.00 in
Snow Depth Not available.
UV 7 out of 12
Pollen 9.30 out of 12
Air Quality Not available.
Flu Activity Not available.
METAR KGOK 302053Z AUTO 09003KT 10SM CLR 31/17 A2995 RMK AO2 SLP132 T03110172 58021
Pressure 29.92 in
Visibility 10.0 miles
Clouds Clear
Heat Index 95 °F
Dew Point 70 °F
Humidity 52%
Rainfall 0.00 in
Snow Depth Not available.
UV 7 out of 12
Pollen 9.30 out of 12
Air Quality Not available.
Flu Activity Not available.
METAR KGOK 302053Z AUTO 09003KT 10SM CLR 31/17 A2995 RMK AO2 SLP132 T03110172 58021

10-Day Weather Forecast

×

Almanac

Astronomy

Aug. 30, 2015 Rise Set
Actual Time
Civil Twilight
Nautical Twilight
Astronomical Twilight
Moon
Length of Visible Light
Length of Day
Tomorrow will be .
, % of the Moon is Illuminated

Today's Extremes

State Highs State Lows

Community

WunderPhotos

Upload Photos

1,851,057 photos uploaded!

WunderBlogs® & News

Nearby

Air Quality

  Air Quality AQ Index Pollutant
Not available.

Snow Depth

Station Depth Elevation

Earthquake Activity

City Distance Mag. Time & Date
Minimum magnitude displayed is 2.5.

Coastal Water Temperatures

Place Temperature

Stations

Nearby Weather Stations

Station Location Temp. Windchill Dew Point Humidity Wind Precip. Elev Updated Type